createdAt,value
2019-04-22T00:00:57.268Z,99297.79
2019-04-22T00:03:45.317Z,99297.28
2019-04-22T00:06:25.958Z,99290.81
2019-04-22T00:08:58.765Z,99285.05
2019-04-22T00:13:55.284Z,99284.63
2019-04-22T00:16:27.966Z,99279.13
2019-04-22T00:19:01.820Z,99279.27
2019-04-22T00:21:19.784Z,99280.09
2019-04-22T00:23:49.623Z,99275.30
2019-04-22T00:26:12.689Z,99266.23
2019-04-22T00:28:44.047Z,99265.98
2019-04-22T00:31:05.068Z,99270.19
2019-04-22T00:33:35.357Z,99261.66
2019-04-22T00:36:04.327Z,99262.64
2019-04-22T00:38:33.427Z,99258.19
2019-04-22T00:40:52.536Z,99259.02
2019-04-22T00:43:25.883Z,99254.68
2019-04-22T00:45:49.160Z,99252.16
2019-04-22T00:48:21.006Z,99252.48
2019-04-22T00:50:46.719Z,99249.66
2019-04-22T00:53:16.436Z,99245.91
2019-04-22T00:55:40.623Z,99244.29
2019-04-22T00:58:08.041Z,99239.17
2019-04-22T01:00:39.226Z,99240.45
2019-04-22T01:03:01.650Z,99237.03
2019-04-22T01:05:37.895Z,99240.84
2019-04-22T01:07:57.019Z,99233.08
2019-04-22T01:10:28.751Z,99240.99
2019-04-22T01:12:50.702Z,99232.43
2019-04-22T01:15:23.773Z,99230.85
2019-04-22T01:17:52.464Z,99226.67
2019-04-22T01:20:29.339Z,99218.08
2019-04-22T01:22:38.157Z,99222.62
2019-04-22T01:25:12.953Z,99216.61
2019-04-22T01:27:31.055Z,99205.36
2019-04-22T01:29:59.717Z,99207.64
2019-04-22T01:32:16.567Z,99207.72
2019-04-22T01:34:52.612Z,99208.72
2019-04-22T01:37:27.172Z,99198.66
2019-04-22T01:42:24.467Z,99196.48
2019-04-22T01:44:53.402Z,99196.05
2019-04-22T01:47:24.824Z,99197.59
2019-04-22T01:49:45.877Z,99192.48
2019-04-22T01:52:18.670Z,99193.39
2019-04-22T01:54:50.424Z,99191.33
2019-04-22T01:57:09.907Z,99196.09
2019-04-22T01:59:31.792Z,99188.83
2019-04-22T02:02:14.488Z,99185.79
2019-04-22T02:04:48.001Z,99180.40
2019-04-22T02:12:02.924Z,99175.53
2019-04-22T02:14:26.989Z,99174.61
2019-04-22T02:16:55.793Z,99169.07
2019-04-22T02:19:22.830Z,99166.14
2019-04-22T02:21:51.686Z,99174.43
2019-04-22T02:24:20.064Z,99166.55
2019-04-22T02:26:54.609Z,99165.38
2019-04-22T02:29:16.614Z,99161.18
2019-04-22T02:31:46.967Z,99160.69
2019-04-22T02:34:13.920Z,99162.87
2019-04-22T02:36:36.310Z,99163.24
2019-04-22T02:44:08.282Z,99151.45
2019-04-22T02:46:53.273Z,99153.75
2019-04-22T02:49:05.351Z,99151.28
2019-04-22T02:51:22.264Z,99147.48
2019-04-22T02:56:27.536Z,99146.91
2019-04-22T03:01:27.537Z,99146.53
2019-04-22T03:06:24.018Z,99135.59
2019-04-22T03:08:43.371Z,99136.91
2019-04-22T03:13:37.795Z,99128.59
2019-04-22T03:18:38.356Z,99127.19
2019-04-22T03:21:08.023Z,99124.00
2019-04-22T03:23:36.825Z,99122.01
2019-04-22T03:28:29.199Z,99112.72
2019-04-22T03:31:44.179Z,99113.22
2019-04-22T03:33:44.062Z,99113.88
2019-04-22T03:36:21.430Z,99103.84
2019-04-22T03:38:41.632Z,99106.59
2019-04-22T03:41:03.631Z,99106.28
2019-04-22T03:43:39.055Z,99102.16
2019-04-22T03:45:46.595Z,99095.20
2019-04-22T03:48:15.865Z,99101.92
2019-04-22T03:50:42.873Z,99100.16
2019-04-22T03:53:21.080Z,99105.33
2019-04-22T03:56:04.028Z,99103.41
2019-04-22T04:08:05.708Z,99090.19
2019-04-22T04:10:35.388Z,99090.27
2019-04-22T04:13:03.505Z,99088.94
2019-04-22T04:15:24.846Z,99085.31
2019-04-22T04:25:32.563Z,99077.23
2019-04-22T04:37:46.727Z,99074.84
2019-04-22T04:45:24.027Z,99069.16
2019-04-22T04:47:43.607Z,99071.02
2019-04-22T04:49:57.036Z,99070.54
2019-04-22T04:52:50.801Z,99073.42
2019-04-22T04:55:17.675Z,99070.87
2019-04-22T04:57:28.367Z,99069.17
2019-04-22T05:00:25.726Z,99074.47
2019-04-22T05:02:20.157Z,99066.48
2019-04-22T05:05:06.832Z,99076.72
2019-04-22T05:09:54.974Z,99064.84
2019-04-22T05:12:22.150Z,99064.09
2019-04-22T05:19:25.631Z,99068.84
2019-04-22T05:21:53.423Z,99061.80
2019-04-22T05:24:25.693Z,99064.83
2019-04-22T05:26:48.726Z,99055.39
2019-04-22T05:29:15.039Z,99058.05
2019-04-22T05:31:50.222Z,99055.95
2019-04-22T05:34:09.577Z,99057.84
2019-04-22T05:36:37.587Z,99060.40
2019-04-22T05:41:28.971Z,99058.28
2019-04-22T05:43:58.227Z,99059.69
2019-04-22T05:46:22.392Z,99053.25
2019-04-22T05:48:56.652Z,99054.77
2019-04-22T05:51:23.350Z,99055.92
2019-04-22T05:53:48.371Z,99050.47
2019-04-22T05:56:20.748Z,99049.55
2019-04-22T05:58:44.973Z,99051.13
2019-04-22T06:03:39.734Z,99043.20
2019-04-22T06:06:03.546Z,99042.91
2019-04-22T06:08:29.535Z,99042.84
2019-04-22T06:10:59.119Z,99038.51
2019-04-22T06:13:23.561Z,99041.73
2019-04-22T06:15:52.948Z,99044.73
2019-04-22T06:18:27.066Z,99045.63
2019-04-22T06:20:55.826Z,99042.72
2019-04-22T06:23:19.020Z,99043.30
2019-04-22T06:25:58.960Z,99041.37
2019-04-22T06:28:23.521Z,99043.05
2019-04-22T06:30:50.353Z,99050.59
2019-04-22T06:33:09.464Z,99038.81
2019-04-22T06:35:36.380Z,99043.71
2019-04-22T06:38:26.808Z,99044.80
2019-04-22T06:40:31.531Z,99043.67
2019-04-22T06:43:06.216Z,99041.09
2019-04-22T06:45:23.470Z,99042.05
2019-04-22T06:48:01.994Z,99048.31
2019-04-22T06:50:28.400Z,99047.00
2019-04-22T06:52:52.292Z,99044.64
2019-04-22T06:55:15.118Z,99051.30
2019-04-22T06:57:45.259Z,99050.36
2019-04-22T07:00:18.526Z,99041.08
2019-04-22T07:02:55.852Z,99043.30
2019-04-22T07:05:08.364Z,99051.34
2019-04-22T07:07:38.308Z,99044.95
2019-04-22T07:10:15.098Z,99043.62
2019-04-22T07:12:29.094Z,99049.89
2019-04-22T07:15:09.304Z,99041.36
2019-04-22T07:17:32.252Z,99041.29
2019-04-22T07:19:52.814Z,99043.39
2019-04-22T07:22:21.529Z,99036.01
2019-04-22T07:24:53.914Z,99035.48
2019-04-22T07:27:14.323Z,99037.77
2019-04-22T07:29:46.952Z,99040.03
2019-04-22T07:32:17.186Z,99031.73
2019-04-22T07:34:47.406Z,99034.31
2019-04-22T07:37:34.295Z,99035.14
2019-04-22T07:39:35.238Z,99030.17
2019-04-22T07:42:10.776Z,99028.77
2019-04-22T07:44:30.877Z,99031.23
2019-04-22T07:47:07.010Z,99020.31
2019-04-22T07:49:35.236Z,99018.66
2019-04-22T07:51:55.911Z,99019.05
2019-04-22T07:54:24.332Z,99021.62
2019-04-22T07:56:53.630Z,99021.09
2019-04-22T07:59:17.158Z,99024.39
2019-04-22T08:01:42.797Z,99017.50
2019-04-22T08:06:58.817Z,99015.86
2019-04-22T08:09:14.152Z,99016.63
2019-04-22T08:13:58.708Z,99001.45
2019-04-22T08:16:28.518Z,99005.73
2019-04-22T08:19:03.114Z,99010.68
2019-04-22T08:21:23.758Z,99005.47
2019-04-22T08:23:56.986Z,99003.19
2019-04-22T08:26:25.536Z,99001.48
2019-04-22T08:28:51.801Z,99001.37
2019-04-22T08:31:20.458Z,98991.85
2019-04-22T08:33:46.635Z,98997.48
2019-04-22T08:38:50.682Z,98991.38
2019-04-22T08:41:16.416Z,98996.46
2019-04-22T08:43:48.309Z,98983.95
2019-04-22T08:46:15.189Z,98987.07
2019-04-22T08:48:37.834Z,98989.27
2019-04-22T08:51:00.386Z,98977.13
2019-04-22T08:53:35.905Z,98975.80
2019-04-22T08:56:07.441Z,98972.09
2019-04-22T09:03:16.321Z,98964.95
2019-04-22T09:05:59.660Z,98970.38
2019-04-22T09:08:15.930Z,98972.86
2019-04-22T09:10:44.948Z,98965.17
2019-04-22T09:13:20.653Z,98963.72
2019-04-22T09:15:37.340Z,98955.72
2019-04-22T09:18:08.743Z,98959.16
2019-04-22T09:20:32.581Z,98955.97
2019-04-22T09:23:04.622Z,98960.44
2019-04-22T09:25:29.678Z,98954.52
2019-04-22T09:27:49.766Z,98945.69
2019-04-22T09:33:09.842Z,98955.67
2019-04-22T09:35:16.019Z,98944.74
2019-04-22T09:37:48.366Z,98940.99
2019-04-22T09:40:22.325Z,98940.91
2019-04-22T09:42:38.863Z,98944.94
2019-04-22T09:45:05.715Z,98932.58
2019-04-22T09:47:34.931Z,98934.34
2019-04-22T09:50:16.434Z,98929.86
2019-04-22T09:52:29.157Z,98926.11
2019-04-22T09:55:00.242Z,98914.32
2019-04-22T09:59:57.950Z,98907.86
2019-04-22T10:04:48.222Z,98894.49
2019-04-22T10:07:16.478Z,98892.03
2019-04-22T10:12:10.427Z,98886.39
2019-04-22T10:14:38.342Z,98882.63
2019-04-22T10:17:03.273Z,98875.85
2019-04-22T10:19:31.125Z,98876.27
2019-04-22T10:22:08.546Z,98877.30
2019-04-22T10:24:26.449Z,98869.88
2019-04-22T10:26:55.291Z,98877.06
2019-04-22T10:29:41.510Z,98869.47
2019-04-22T10:31:49.856Z,98865.39
2019-04-22T10:34:05.885Z,98862.07
2019-04-22T10:36:19.497Z,98860.73
2019-04-22T10:38:46.586Z,98853.02
2019-04-22T10:41:14.429Z,98848.36
2019-04-22T10:43:41.319Z,98844.91
2019-04-22T10:46:10.358Z,98832.77
2019-04-22T10:48:36.614Z,98824.55
2019-04-22T10:51:04.712Z,98820.47
2019-04-22T10:53:33.393Z,98819.61
2019-04-22T10:56:00.968Z,98817.15
2019-04-22T10:58:28.618Z,98813.18
2019-04-22T11:00:56.201Z,98813.99
2019-04-22T11:03:22.525Z,98801.75
2019-04-22T11:05:50.597Z,98800.92
2019-04-22T11:08:25.594Z,98807.91
2019-04-22T11:11:00.703Z,98783.86
2019-04-22T11:13:13.636Z,98788.42
2019-04-22T11:15:40.397Z,98781.20
2019-04-22T11:18:07.467Z,98775.45
2019-04-22T11:20:35.775Z,98779.28
2019-04-22T11:23:02.653Z,98775.56
2019-04-22T11:25:30.218Z,98766.80
2019-04-22T11:27:57.875Z,98770.26
2019-04-22T11:30:27.943Z,98764.38
2019-04-22T11:32:54.105Z,98761.98
2019-04-22T11:35:21.527Z,98759.23
2019-04-22T11:37:48.660Z,98753.63
2019-04-22T11:40:23.873Z,98754.42
2019-04-22T11:42:43.906Z,98750.69
2019-04-22T11:45:10.978Z,98741.38
2019-04-22T11:47:39.344Z,98737.58
2019-04-22T11:50:07.953Z,98736.44
2019-04-22T11:52:35.080Z,98735.92
2019-04-22T11:55:01.462Z,98732.12
2019-04-22T11:57:28.956Z,98727.06
2019-04-22T11:59:56.622Z,98727.92
2019-04-22T12:02:25.442Z,98726.84
2019-04-22T12:04:51.899Z,98713.39
2019-04-22T12:07:19.151Z,98718.06
2019-04-22T12:09:47.812Z,98709.62
2019-04-22T12:12:14.200Z,98707.63
2019-04-22T12:14:42.456Z,98704.13
2019-04-22T12:17:09.181Z,98695.86
2019-04-22T12:19:37.929Z,98691.36
2019-04-22T12:22:04.862Z,98689.59
2019-04-22T12:24:32.050Z,98685.98
2019-04-22T12:27:00.222Z,98684.51
2019-04-22T12:29:26.978Z,98678.73
2019-04-22T12:31:55.300Z,98673.27
2019-04-22T12:34:21.724Z,98667.66
2019-04-22T12:36:51.071Z,98663.44
2019-04-22T12:39:17.923Z,98657.34
2019-04-22T12:41:46.470Z,98645.03
2019-04-22T12:44:15.017Z,98655.00
2019-04-22T12:46:42.045Z,98646.39
2019-04-22T12:49:09.917Z,98638.84
2019-04-22T12:51:36.751Z,98642.02
2019-04-22T12:54:03.722Z,98632.39
2019-04-22T12:56:31.258Z,98633.88
2019-04-22T12:58:59.377Z,98622.30
2019-04-22T13:01:26.842Z,98623.23
2019-04-22T13:04:00.290Z,98617.45
2019-04-22T13:06:21.761Z,98611.44
2019-04-22T13:08:50.078Z,98600.91
2019-04-22T13:11:20.244Z,98595.41
2019-04-22T13:13:45.211Z,98590.61
2019-04-22T13:16:13.418Z,98596.17
2019-04-22T13:18:49.370Z,98595.66
2019-04-22T13:21:08.776Z,98589.16
2019-04-22T13:23:35.061Z,98580.13
2019-04-22T13:50:47.670Z,98554.52
2019-04-22T13:53:10.891Z,98551.05
2019-04-22T13:55:32.736Z,98542.28
2019-04-22T13:57:53.378Z,98549.57
2019-04-22T14:00:11.410Z,98547.83
2019-04-22T14:02:58.222Z,98544.53
2019-04-22T14:05:28.934Z,98538.58
2019-04-22T14:08:02.671Z,98534.55
2019-04-22T14:10:34.293Z,98527.71
2019-04-22T14:13:03.904Z,98540.52
2019-04-22T14:15:36.012Z,98528.35
2019-04-22T14:18:03.133Z,98523.16
2019-04-22T14:20:32.704Z,98525.06
2019-04-22T14:23:02.629Z,98520.75
2019-04-22T14:25:28.511Z,98523.88
2019-04-22T14:28:06.314Z,98503.50
2019-04-22T14:30:32.853Z,98503.03
2019-04-22T14:33:04.823Z,98500.31
2019-04-22T14:35:33.920Z,98495.98
2019-04-22T14:38:04.242Z,98491.47
2019-04-22T14:40:34.714Z,98484.83
2019-04-22T14:43:25.270Z,98486.02
2019-04-22T14:46:04.047Z,98485.27
2019-04-22T14:48:33.539Z,98484.98
2019-04-22T14:50:55.913Z,98483.31
2019-04-22T14:53:23.624Z,98472.27
2019-04-22T14:55:36.006Z,98478.83
2019-04-22T14:58:06.948Z,98471.20
2019-04-22T15:00:35.827Z,98461.89
2019-04-22T15:03:03.874Z,98463.02
2019-04-22T15:05:34.389Z,98462.70
2019-04-22T15:08:03.922Z,98462.91
2019-04-22T15:10:33.753Z,98466.27
2019-04-22T15:13:03.062Z,98463.42
2019-04-22T15:15:45.818Z,98452.99
2019-04-22T15:18:13.598Z,98453.56
2019-04-22T15:20:47.487Z,98451.73
2019-04-22T15:23:14.724Z,98444.77
2019-04-22T15:25:46.336Z,98444.91
2019-04-22T15:28:17.550Z,98430.84
2019-04-22T15:30:45.692Z,98440.46
2019-04-22T15:33:19.318Z,98436.25
2019-04-22T15:35:49.472Z,98434.37
2019-04-22T15:38:20.968Z,98436.03
2019-04-22T15:40:49.754Z,98436.08
2019-04-22T15:43:20.470Z,98438.09
2019-04-22T15:45:48.473Z,98441.10
2019-04-22T15:48:18.974Z,98437.69
2019-04-22T15:50:48.879Z,98430.08
2019-04-22T15:53:17.995Z,98435.29
2019-04-22T15:55:50.395Z,98433.96
2019-04-22T15:58:21.607Z,98430.19
2019-04-22T16:00:57.560Z,98432.53
2019-04-22T16:03:16.436Z,98426.94
2019-04-22T16:05:45.888Z,98427.78
2019-04-22T16:08:12.967Z,98427.73
2019-04-22T16:10:41.948Z,98426.61
2019-04-22T16:13:16.146Z,98427.84
2019-04-22T16:15:36.321Z,98423.28
2019-04-22T16:18:04.749Z,98421.08
2019-04-22T16:20:30.546Z,98421.81
2019-04-22T16:22:59.277Z,98419.29
2019-04-22T16:25:31.346Z,98422.49
2019-04-22T16:27:58.623Z,98415.91
2019-04-22T16:30:27.680Z,98421.05
2019-04-22T16:32:55.044Z,98415.77
2019-04-22T16:35:22.569Z,98418.80
2019-04-22T16:37:50.596Z,98415.55
2019-04-22T16:40:16.835Z,98409.66
2019-04-22T16:42:51.527Z,98408.94
2019-04-22T16:45:11.673Z,98406.05
2019-04-22T16:47:39.663Z,98407.45
2019-04-22T16:50:07.875Z,98397.94
2019-04-22T16:52:34.318Z,98400.91
2019-04-22T16:55:03.062Z,98395.00
2019-04-22T16:57:30.036Z,98395.13
2019-04-22T16:59:56.530Z,98395.00
2019-04-22T17:02:30.800Z,98398.38
2019-04-22T17:05:01.997Z,98398.13
2019-04-22T17:07:28.138Z,98396.69
2019-04-22T17:09:55.680Z,98388.36
2019-04-22T17:12:23.942Z,98394.98
2019-04-22T17:14:56.825Z,98392.33
2019-04-22T17:17:18.345Z,98393.09
2019-04-22T17:19:46.924Z,98393.24
2019-04-22T17:22:13.333Z,98397.06
2019-04-22T17:24:41.622Z,98397.25
2019-04-22T17:27:08.662Z,98399.63
2019-04-22T17:29:36.629Z,98398.02
2019-04-22T17:32:07.723Z,98396.55
2019-04-22T17:34:31.680Z,98396.08
2019-04-22T17:36:59.220Z,98390.88
2019-04-22T17:39:35.907Z,98400.06
2019-04-22T17:42:11.143Z,98391.42
2019-04-22T17:47:20.423Z,98392.57
2019-04-22T17:49:54.169Z,98391.52
2019-04-22T17:52:21.181Z,98394.88
2019-04-22T17:54:49.251Z,98394.82
2019-04-22T17:57:09.988Z,98397.35
2019-04-22T17:59:42.159Z,98394.86
2019-04-22T18:02:05.803Z,98390.59
2019-04-22T18:04:16.610Z,98391.47
2019-04-22T18:07:12.093Z,98394.57
2019-04-22T18:09:53.673Z,98395.35
2019-04-22T18:12:04.794Z,98399.29
2019-04-22T18:16:52.111Z,98405.66
2019-04-22T18:19:21.545Z,98411.79
2019-04-22T18:21:46.189Z,98409.14
2019-04-22T18:24:07.711Z,98407.27
2019-04-22T18:26:47.587Z,98407.30
2019-04-22T18:29:13.158Z,98413.58
2019-04-22T18:31:31.577Z,98406.66
2019-04-22T18:34:00.630Z,98420.34
2019-04-22T18:36:34.565Z,98412.69
2019-04-22T18:39:04.815Z,98415.59
2019-04-22T18:41:30.373Z,98416.72
2019-04-22T18:43:58.994Z,98416.77
2019-04-22T18:46:30.004Z,98422.12
2019-04-22T18:48:54.056Z,98420.17
2019-04-22T18:51:24.715Z,98426.55
2019-04-22T18:53:56.147Z,98422.95
2019-04-22T18:56:21.970Z,98419.53
2019-04-22T18:58:39.420Z,98425.03
2019-04-22T19:00:57.644Z,98426.58
2019-04-22T19:03:28.338Z,98427.84
2019-04-22T19:06:27.475Z,98430.03
2019-04-22T19:08:36.674Z,98433.74
2019-04-22T19:16:19.278Z,98432.13
2019-04-22T19:18:37.952Z,98434.70
2019-04-22T19:21:03.040Z,98431.09
2019-04-22T19:23:29.011Z,98436.30
2019-04-22T19:25:52.551Z,98434.64
2019-04-22T19:28:32.407Z,98432.69
2019-04-22T19:30:48.161Z,98431.75
2019-04-22T19:33:19.201Z,98442.12
2019-04-22T19:35:40.439Z,98443.16
2019-04-22T19:38:06.758Z,98438.00
2019-04-22T19:40:52.741Z,98436.11
2019-04-22T19:43:12.146Z,98439.92
2019-04-22T19:45:32.735Z,98433.61
2019-04-22T19:48:10.105Z,98437.63
2019-04-22T19:50:39.027Z,98444.50
2019-04-22T19:53:01.329Z,98442.52
2019-04-22T19:55:23.914Z,98441.66
2019-04-22T19:57:50.967Z,98444.66
2019-04-22T20:00:18.399Z,98434.20
2019-04-22T20:03:14.881Z,98432.73
2019-04-22T20:05:37.467Z,98437.63
2019-04-22T20:08:04.484Z,98435.72
2019-04-22T20:10:26.496Z,98439.03
2019-04-22T20:12:55.832Z,98437.76
2019-04-22T20:15:19.965Z,98431.33
2019-04-22T20:18:11.454Z,98431.33
2019-04-22T20:20:22.758Z,98430.13
2019-04-22T20:22:44.815Z,98431.54
2019-04-22T20:25:01.815Z,98432.70
2019-04-22T20:27:43.163Z,98427.64
2019-04-22T20:30:13.368Z,98426.85
2019-04-22T20:32:34.514Z,98428.41
2019-04-22T20:35:09.388Z,98430.06
2019-04-22T20:37:35.544Z,98425.70
2019-04-22T20:40:04.060Z,98423.33
2019-04-22T20:42:42.047Z,98423.73
2019-04-22T20:44:57.172Z,98422.45
2019-04-22T20:47:17.921Z,98418.44
2019-04-22T20:49:47.210Z,98422.45
2019-04-22T20:54:45.349Z,98418.83
2019-04-22T20:57:07.174Z,98418.61
2019-04-22T20:59:32.940Z,98424.49
2019-04-22T21:02:01.970Z,98412.64
2019-04-22T21:04:26.134Z,98414.85
2019-04-22T21:07:00.922Z,98419.59
2019-04-22T21:09:27.282Z,98411.41
2019-04-22T21:11:53.662Z,98413.34
2019-04-22T21:14:21.565Z,98417.51
2019-04-22T21:16:59.203Z,98412.49
2019-04-22T21:19:33.561Z,98413.48
2019-04-22T21:21:54.955Z,98407.30
2019-04-22T21:24:18.080Z,98409.13
2019-04-22T21:26:43.736Z,98413.37
2019-04-22T21:29:07.257Z,98408.98
2019-04-22T21:31:38.625Z,98407.56
2019-04-22T21:34:05.368Z,98408.02
2019-04-22T21:37:00.972Z,98400.48
2019-04-22T21:39:03.646Z,98392.95
2019-04-22T21:41:30.386Z,98400.48
2019-04-22T21:44:01.808Z,98400.25
2019-04-22T21:46:29.212Z,98406.16
2019-04-22T21:48:52.819Z,98395.43
2019-04-22T21:51:24.475Z,98398.06
2019-04-22T21:53:57.555Z,98401.50
2019-04-22T21:56:41.105Z,98398.69
2019-04-22T21:58:52.595Z,98397.34
2019-04-22T22:01:29.201Z,98399.08
2019-04-22T22:03:48.023Z,98392.16
2019-04-22T22:06:06.213Z,98388.47
2019-04-22T22:08:46.017Z,98385.14
2019-04-22T22:11:06.402Z,98382.09
2019-04-22T22:13:40.353Z,98385.73
2019-04-22T22:16:04.631Z,98388.58
2019-04-22T22:18:30.745Z,98384.23
2019-04-22T22:21:19.407Z,98390.40
2019-04-22T22:23:36.361Z,98388.58
2019-04-22T22:25:53.428Z,98376.02
2019-04-22T22:28:42.058Z,98377.78
2019-04-22T22:31:02.740Z,98369.53
2019-04-22T22:33:17.020Z,98367.59
2019-04-22T22:35:45.737Z,98371.38
2019-04-22T22:38:13.504Z,98363.16
2019-04-22T22:40:27.597Z,98364.81
2019-04-22T22:42:53.475Z,98361.55
2019-04-22T22:45:31.732Z,98351.75
2019-04-22T22:48:14.969Z,98348.55
2019-04-22T22:50:30.294Z,98348.23
2019-04-22T22:55:26.464Z,98338.79
2019-04-22T22:57:58.401Z,98339.02
2019-04-22T23:00:19.445Z,98329.90
2019-04-22T23:03:06.988Z,98326.37
2019-04-22T23:05:18.463Z,98328.81
2019-04-22T23:07:47.547Z,98331.28
2019-04-22T23:10:11.306Z,98326.63
2019-04-22T23:13:01.853Z,98322.03
2019-04-22T23:15:06.167Z,98324.41
2019-04-22T23:17:22.303Z,98314.38
2019-04-22T23:19:49.719Z,98312.15
2019-04-22T23:22:20.381Z,98310.70
2019-04-22T23:24:55.603Z,98305.23
2019-04-22T23:27:29.359Z,98300.22
2019-04-22T23:30:06.684Z,98305.61
2019-04-22T23:32:35.784Z,98291.84
2019-04-22T23:35:14.683Z,98292.72
2019-04-22T23:37:44.137Z,98292.23
2019-04-22T23:40:09.725Z,98278.74
2019-04-22T23:42:36.587Z,98279.27
2019-04-22T23:45:04.141Z,98268.92
2019-04-22T23:47:26.374Z,98267.27
2019-04-22T23:49:56.470Z,98265.84
2019-04-22T23:52:29.060Z,98266.72
2019-04-22T23:55:11.761Z,98263.47
2019-04-22T23:57:33.074Z,98253.53
